createdAt,value
2022-10-26T00:01:21.167Z,100.00
2022-10-26T00:03:48.710Z,100.00
2022-10-26T00:06:18.175Z,100.00
2022-10-26T00:08:46.854Z,100.00
2022-10-26T00:11:15.282Z,100.00
2022-10-26T00:13:46.268Z,100.00
2022-10-26T00:16:17.017Z,100.00
2022-10-26T00:18:44.952Z,100.00
2022-10-26T00:21:12.806Z,100.00
2022-10-26T00:23:40.628Z,100.00
2022-10-26T00:26:08.821Z,100.00
2022-10-26T00:28:37.108Z,100.00
2022-10-26T00:31:08.628Z,100.00
2022-10-26T00:33:37.047Z,100.00
2022-10-26T00:36:05.047Z,100.00
2022-10-26T00:38:32.608Z,100.00
2022-10-26T00:41:00.256Z,100.00
2022-10-26T00:43:38.926Z,100.00
2022-10-26T00:46:12.070Z,100.00
2022-10-26T00:48:44.133Z,100.00
2022-10-26T00:51:16.717Z,100.00
2022-10-26T00:53:45.160Z,100.00
2022-10-26T00:56:13.199Z,100.00
2022-10-26T00:58:41.560Z,100.00
2022-10-26T01:01:11.343Z,100.00
2022-10-26T01:03:39.623Z,100.00
2022-10-26T01:06:07.620Z,100.00
2022-10-26T01:08:35.493Z,100.00
2022-10-26T01:11:04.228Z,100.00
2022-10-26T01:13:35.752Z,100.00
2022-10-26T01:16:24.077Z,100.00
2022-10-26T01:19:02.805Z,100.00
2022-10-26T01:21:43.144Z,100.00
2022-10-26T01:24:24.701Z,100.00
2022-10-26T01:27:06.175Z,100.00
2022-10-26T01:29:58.672Z,100.00
2022-10-26T01:32:33.661Z,100.00
2022-10-26T01:35:08.162Z,100.00
2022-10-26T01:37:41.347Z,100.00
2022-10-26T01:40:17.437Z,100.00
2022-10-26T01:42:50.251Z,100.00
2022-10-26T01:45:19.089Z,100.00
2022-10-26T01:47:49.769Z,100.00
2022-10-26T01:50:19.309Z,100.00
2022-10-26T01:52:50.625Z,100.00
2022-10-26T01:55:41.395Z,100.00
2022-10-26T01:58:22.726Z,100.00
2022-10-26T02:01:00.136Z,100.00
2022-10-26T02:03:38.759Z,100.00
2022-10-26T02:06:16.932Z,100.00
2022-10-26T02:08:59.165Z,100.00
2022-10-26T02:11:37.065Z,100.00
2022-10-26T02:16:53.461Z,100.00
2022-10-26T02:19:32.789Z,100.00
2022-10-26T02:22:06.801Z,100.00
2022-10-26T02:24:37.665Z,100.00
2022-10-26T02:27:09.221Z,100.00
2022-10-26T02:29:37.743Z,100.00
2022-10-26T02:32:07.242Z,100.00
2022-10-26T02:34:38.899Z,100.00
2022-10-26T02:37:08.475Z,100.00
2022-10-26T02:39:39.505Z,100.00
2022-10-26T02:42:09.347Z,100.00
2022-10-26T02:44:42.643Z,100.00
2022-10-26T02:47:10.580Z,100.00
2022-10-26T02:49:39.557Z,100.00
2022-10-26T02:52:12.532Z,100.00
2022-10-26T02:54:51.620Z,100.00
2022-10-26T02:57:24.446Z,100.00
2022-10-26T02:59:53.329Z,100.00
2022-10-26T03:02:23.095Z,100.00
2022-10-26T03:04:52.099Z,100.00
2022-10-26T03:07:23.456Z,100.00
2022-10-26T03:09:51.079Z,100.00
2022-10-26T03:12:18.888Z,100.00
2022-10-26T03:14:46.381Z,100.00
2022-10-26T03:17:13.911Z,100.00
2022-10-26T03:19:41.534Z,100.00
2022-10-26T03:22:10.376Z,100.00
2022-10-26T03:24:37.896Z,100.00
2022-10-26T03:27:05.476Z,100.00
2022-10-26T03:29:33.003Z,100.00
2022-10-26T03:32:00.530Z,100.00
2022-10-26T03:34:28.108Z,100.00
2022-10-26T03:36:55.638Z,100.00
2022-10-26T03:39:24.591Z,100.00
2022-10-26T03:44:24.615Z,100.00
2022-10-26T03:46:52.130Z,100.00
2022-10-26T03:49:19.786Z,100.00
2022-10-26T03:51:47.325Z,100.00
2022-10-26T03:54:14.883Z,100.00
2022-10-26T03:56:43.750Z,100.00
2022-10-26T03:59:11.259Z,100.00
2022-10-26T04:01:38.877Z,100.00
2022-10-26T04:04:06.586Z,100.00
2022-10-26T04:06:34.189Z,100.00
2022-10-26T04:09:02.453Z,100.00
2022-10-26T04:11:30.016Z,100.00
2022-10-26T04:13:59.533Z,100.00
2022-10-26T04:16:31.003Z,100.00
2022-10-26T04:19:01.075Z,100.00
2022-10-26T04:21:28.680Z,100.00
2022-10-26T04:23:56.416Z,100.00
2022-10-26T04:26:23.977Z,100.00
2022-10-26T04:28:51.547Z,100.00
2022-10-26T04:31:20.672Z,100.00
2022-10-26T04:33:48.227Z,100.00
2022-10-26T04:36:15.745Z,100.00
2022-10-26T04:38:43.312Z,100.00
2022-10-26T04:41:10.816Z,100.00
2022-10-26T04:43:38.364Z,100.00
2022-10-26T04:46:06.151Z,100.00
2022-10-26T04:48:35.050Z,100.00
2022-10-26T04:51:02.703Z,100.00
2022-10-26T04:53:30.231Z,100.00
2022-10-26T04:55:58.262Z,100.00
2022-10-26T04:58:26.096Z,100.00
2022-10-26T05:00:53.700Z,100.00
2022-10-26T05:03:21.370Z,100.00
2022-10-26T05:05:50.275Z,100.00
2022-10-26T05:08:17.869Z,100.00
2022-10-26T05:10:49.786Z,100.00
2022-10-26T05:13:18.337Z,100.00
2022-10-26T05:15:45.988Z,100.00
2022-10-26T05:18:13.492Z,100.00
2022-10-26T05:20:41.000Z,100.00
2022-10-26T05:23:12.411Z,100.00
2022-10-26T05:25:40.175Z,100.00
2022-10-26T05:28:11.620Z,100.00
2022-10-26T05:30:39.185Z,100.00
2022-10-26T05:33:07.550Z,100.00
2022-10-26T05:35:35.123Z,100.00
2022-10-26T05:38:08.172Z,100.00
2022-10-26T05:40:37.552Z,100.00
2022-10-26T05:43:05.703Z,100.00
2022-10-26T05:45:33.215Z,100.00
2022-10-26T05:48:02.865Z,100.00
2022-10-26T05:50:31.210Z,100.00
2022-10-26T05:52:58.793Z,100.00
2022-10-26T05:55:27.144Z,100.00
2022-10-26T05:57:56.629Z,100.00
2022-10-26T06:00:26.323Z,100.00
2022-10-26T06:03:08.460Z,100.00
2022-10-26T06:05:42.318Z,100.00
2022-10-26T06:08:11.867Z,100.00
2022-10-26T06:10:40.506Z,100.00
2022-10-26T06:13:09.951Z,100.00
2022-10-26T06:15:48.868Z,100.00
2022-10-26T06:18:27.596Z,100.00
2022-10-26T06:21:10.740Z,100.00
2022-10-26T06:23:51.461Z,100.00
2022-10-26T06:26:28.959Z,100.00
2022-10-26T06:29:07.598Z,100.00
2022-10-26T06:31:35.170Z,100.00
2022-10-26T06:34:03.115Z,100.00
2022-10-26T06:36:32.196Z,100.00
2022-10-26T06:39:03.640Z,100.00
2022-10-26T06:41:33.520Z,100.00
2022-10-26T06:44:03.866Z,100.00
2022-10-26T06:46:38.097Z,100.00
2022-10-26T06:49:14.762Z,100.00
2022-10-26T06:51:50.589Z,100.00
2022-10-26T06:54:24.221Z,100.00
2022-10-26T06:56:53.347Z,100.00
2022-10-26T06:59:33.556Z,100.00
2022-10-26T07:02:04.199Z,100.00
2022-10-26T07:04:33.979Z,100.00
2022-10-26T07:07:01.567Z,100.00
2022-10-26T07:09:29.183Z,100.00
2022-10-26T07:11:56.796Z,100.00
2022-10-26T07:14:25.721Z,100.00
2022-10-26T07:16:53.224Z,100.00
2022-10-26T07:19:20.762Z,100.00
2022-10-26T07:21:48.324Z,100.00
2022-10-26T07:24:16.278Z,100.00
2022-10-26T07:26:43.804Z,100.00
2022-10-26T07:29:11.322Z,100.00
2022-10-26T07:31:40.348Z,100.00
2022-10-26T07:34:07.861Z,100.00
2022-10-26T07:36:36.609Z,100.00
2022-10-26T07:39:04.596Z,100.00
2022-10-26T07:41:32.613Z,100.00
2022-10-26T07:44:00.572Z,100.00
2022-10-26T07:46:29.394Z,100.00
2022-10-26T07:48:58.278Z,100.00
2022-10-26T07:51:25.830Z,100.00
2022-10-26T07:53:53.730Z,100.00
2022-10-26T07:56:21.294Z,100.00
2022-10-26T07:58:48.879Z,100.00
2022-10-26T08:01:17.210Z,99.76
2022-10-26T08:03:44.965Z,99.94
2022-10-26T08:06:14.481Z,99.14
2022-10-26T08:08:45.027Z,98.36
2022-10-26T08:11:15.248Z,98.23
2022-10-26T08:13:42.893Z,97.90
2022-10-26T08:16:10.498Z,97.61
2022-10-26T08:18:38.074Z,97.58
2022-10-26T08:21:11.703Z,96.99
2022-10-26T08:23:42.413Z,96.69
2022-10-26T08:26:11.329Z,96.28
2022-10-26T08:28:39.943Z,96.59
2022-10-26T08:31:08.206Z,96.79
2022-10-26T08:33:35.774Z,96.76
2022-10-26T08:36:06.530Z,96.40
2022-10-26T08:38:34.725Z,96.29
2022-10-26T08:41:09.357Z,96.23
2022-10-26T08:43:41.885Z,96.00
2022-10-26T08:46:14.885Z,95.03
2022-10-26T08:48:45.569Z,94.99
2022-10-26T08:51:18.176Z,94.74
2022-10-26T08:53:51.716Z,94.62
2022-10-26T08:56:24.757Z,93.99
2022-10-26T08:58:56.841Z,92.32
2022-10-26T09:01:24.780Z,89.55
2022-10-26T09:03:52.680Z,90.18
2022-10-26T09:06:31.683Z,90.10
2022-10-26T09:09:08.065Z,90.68
2022-10-26T09:11:53.545Z,89.43
2022-10-26T09:14:33.700Z,89.66
2022-10-26T09:17:12.778Z,89.88
2022-10-26T09:20:08.002Z,89.90
2022-10-26T09:22:43.483Z,89.73
2022-10-26T09:25:19.505Z,91.22
2022-10-26T09:27:52.604Z,89.93
2022-10-26T09:30:22.293Z,87.51
2022-10-26T09:32:53.153Z,86.94
2022-10-26T09:35:24.325Z,87.63
2022-10-26T09:37:56.160Z,85.10
2022-10-26T09:40:28.963Z,83.12
2022-10-26T09:43:02.138Z,82.84
2022-10-26T09:45:32.075Z,82.29
2022-10-26T09:48:06.708Z,80.86
2022-10-26T09:50:36.697Z,81.43
2022-10-26T09:53:04.524Z,80.51
2022-10-26T09:55:33.813Z,80.58
2022-10-26T09:58:05.326Z,81.12
2022-10-26T10:03:19.823Z,81.23
2022-10-26T10:05:52.099Z,76.34
2022-10-26T10:08:22.413Z,69.37
2022-10-26T10:10:59.136Z,67.38
2022-10-26T10:13:31.452Z,67.70
2022-10-26T10:16:04.614Z,67.15
2022-10-26T10:18:33.301Z,65.42
2022-10-26T10:21:01.405Z,64.37
2022-10-26T10:23:31.970Z,64.52
2022-10-26T10:26:05.664Z,64.73
2022-10-26T10:28:35.334Z,63.74
2022-10-26T10:31:05.157Z,65.19
2022-10-26T10:33:37.862Z,65.43
2022-10-26T10:36:09.808Z,63.17
2022-10-26T10:38:40.780Z,61.22
2022-10-26T10:41:17.785Z,61.37
2022-10-26T10:43:49.866Z,61.31
2022-10-26T10:46:23.433Z,62.84
2022-10-26T10:48:55.969Z,62.78
2022-10-26T10:51:26.611Z,62.36
2022-10-26T10:53:56.811Z,61.62
2022-10-26T10:56:33.711Z,60.99
2022-10-26T10:59:34.580Z,62.15
2022-10-26T11:02:25.330Z,62.55
2022-10-26T11:05:03.274Z,62.35
2022-10-26T11:07:33.535Z,61.73
2022-10-26T11:10:04.866Z,61.25
2022-10-26T11:12:39.447Z,61.21
2022-10-26T11:15:12.518Z,60.12
2022-10-26T11:17:56.181Z,60.15
2022-10-26T11:20:25.554Z,57.52
2022-10-26T11:25:43.559Z,55.72
2022-10-26T11:28:15.242Z,56.64
2022-10-26T11:30:47.880Z,56.71
2022-10-26T11:33:24.358Z,55.65
2022-10-26T11:35:57.400Z,54.64
2022-10-26T11:38:46.025Z,55.74
2022-10-26T11:41:26.602Z,55.43
2022-10-26T11:43:58.752Z,56.00
2022-10-26T11:46:32.585Z,54.40
2022-10-26T11:49:06.450Z,54.38
2022-10-26T11:51:40.480Z,53.74
2022-10-26T11:54:13.967Z,54.71
2022-10-26T11:56:47.711Z,56.04
2022-10-26T11:59:20.072Z,54.95
2022-10-26T12:01:51.089Z,53.11
2022-10-26T12:04:21.269Z,54.55
2022-10-26T12:06:52.131Z,55.08
2022-10-26T12:09:26.481Z,55.18
2022-10-26T12:12:03.307Z,56.09
2022-10-26T12:14:41.180Z,55.72
2022-10-26T12:17:14.151Z,55.96
2022-10-26T12:19:50.963Z,51.89
2022-10-26T12:22:20.172Z,51.63
2022-10-26T12:25:05.122Z,50.20
2022-10-26T12:27:49.442Z,49.69
2022-10-26T12:30:26.885Z,49.12
2022-10-26T12:32:56.242Z,48.40
2022-10-26T12:35:39.856Z,47.83
2022-10-26T12:38:48.229Z,47.68
2022-10-26T12:41:26.633Z,48.74
2022-10-26T12:43:59.090Z,49.83
2022-10-26T12:46:41.933Z,50.63
2022-10-26T12:49:55.255Z,48.47
2022-10-26T12:52:30.048Z,48.20
2022-10-26T12:55:30.824Z,46.82
2022-10-26T12:58:16.221Z,47.08
2022-10-26T13:00:52.605Z,46.52
2022-10-26T13:03:33.612Z,46.62
2022-10-26T13:06:30.181Z,45.95
2022-10-26T13:09:00.103Z,45.38
2022-10-26T13:11:33.071Z,44.75
2022-10-26T13:14:03.350Z,43.43
2022-10-26T13:16:31.681Z,42.29
2022-10-26T13:19:00.580Z,42.92
2022-10-26T13:21:28.747Z,43.34
2022-10-26T13:24:05.353Z,45.03
2022-10-26T13:26:53.576Z,43.44
2022-10-26T13:29:30.778Z,42.74
2022-10-26T13:31:59.932Z,41.56
2022-10-26T13:34:30.833Z,42.53
2022-10-26T13:37:06.047Z,42.30
2022-10-26T13:39:39.049Z,43.25
2022-10-26T13:42:08.137Z,42.31
2022-10-26T13:44:40.473Z,41.74
2022-10-26T13:47:11.697Z,42.66
2022-10-26T13:49:41.231Z,41.93
2022-10-26T13:52:17.043Z,42.52
2022-10-26T13:54:50.007Z,41.32
2022-10-26T13:57:21.301Z,41.53
2022-10-26T13:59:48.819Z,41.23
2022-10-26T14:02:19.636Z,41.87
2022-10-26T14:04:48.738Z,40.32
2022-10-26T14:07:22.715Z,39.18
2022-10-26T14:09:57.548Z,38.46
2022-10-26T14:12:28.857Z,37.85
2022-10-26T14:15:03.600Z,38.89
2022-10-26T14:17:31.280Z,38.72
2022-10-26T14:19:59.052Z,38.83
2022-10-26T14:22:29.953Z,37.19
2022-10-26T14:25:00.689Z,37.84
2022-10-26T14:27:33.134Z,36.29
2022-10-26T14:30:21.604Z,35.71
2022-10-26T14:32:49.570Z,36.15
2022-10-26T14:35:18.205Z,36.78
2022-10-26T14:37:50.219Z,36.04
2022-10-26T14:40:21.738Z,36.34
2022-10-26T14:42:52.296Z,37.92
2022-10-26T14:45:29.701Z,39.07
2022-10-26T14:48:06.416Z,39.93
2022-10-26T14:50:36.492Z,40.50
2022-10-26T14:53:12.254Z,42.10
2022-10-26T14:55:50.133Z,44.01
2022-10-26T14:58:24.193Z,43.37
2022-10-26T15:01:29.261Z,45.82
2022-10-26T15:04:01.387Z,46.33
2022-10-26T15:06:35.250Z,46.16
2022-10-26T15:09:06.582Z,46.45
2022-10-26T15:11:36.157Z,45.86
2022-10-26T15:14:04.153Z,47.14
2022-10-26T15:16:35.392Z,47.98
2022-10-26T15:19:09.493Z,48.61
2022-10-26T15:21:40.400Z,48.56
2022-10-26T15:24:23.335Z,50.59
2022-10-26T15:26:52.314Z,51.70
2022-10-26T15:29:36.961Z,52.76
2022-10-26T15:34:38.652Z,54.27
2022-10-26T15:37:06.221Z,54.84
2022-10-26T15:39:33.782Z,56.94
2022-10-26T15:42:02.607Z,57.81
2022-10-26T15:44:30.180Z,59.14
2022-10-26T15:47:06.418Z,60.41
2022-10-26T15:49:36.148Z,61.13
2022-10-26T15:54:36.149Z,63.76
2022-10-26T15:59:38.371Z,67.05
2022-10-26T16:02:13.909Z,67.36
2022-10-26T16:04:41.673Z,68.08
2022-10-26T16:07:14.082Z,69.04
2022-10-26T16:09:42.595Z,69.89
2022-10-26T16:12:12.971Z,71.29
2022-10-26T16:15:03.871Z,72.37
2022-10-26T16:17:28.751Z,72.39
2022-10-26T16:19:56.277Z,73.41
2022-10-26T16:22:24.008Z,74.13
2022-10-26T16:24:51.534Z,74.74
2022-10-26T16:27:20.394Z,75.71
2022-10-26T16:29:47.927Z,76.66
2022-10-26T16:32:15.413Z,77.72
2022-10-26T16:34:42.908Z,78.91
2022-10-26T16:37:10.441Z,79.46
2022-10-26T16:39:38.003Z,79.77
2022-10-26T16:42:06.760Z,80.51
2022-10-26T16:44:36.368Z,81.22
2022-10-26T16:47:03.993Z,81.70
2022-10-26T16:49:31.465Z,82.07
2022-10-26T16:51:59.051Z,82.28
2022-10-26T16:54:26.863Z,83.00
2022-10-26T16:56:54.460Z,83.67
2022-10-26T16:59:21.993Z,85.31
2022-10-26T17:01:50.937Z,86.21
2022-10-26T17:04:18.546Z,86.65
2022-10-26T17:06:46.120Z,87.16
2022-10-26T17:09:13.625Z,87.34
2022-10-26T17:11:41.177Z,87.68
2022-10-26T17:14:08.865Z,87.70
2022-10-26T17:16:36.453Z,88.37
2022-10-26T17:19:05.348Z,88.87
2022-10-26T17:21:35.023Z,88.78
2022-10-26T17:24:02.901Z,88.94
2022-10-26T17:26:30.479Z,88.63
2022-10-26T17:28:58.806Z,89.53
2022-10-26T17:31:26.925Z,89.46
2022-10-26T17:33:54.950Z,89.79
2022-10-26T17:36:25.611Z,89.43
2022-10-26T17:38:54.428Z,90.03
2022-10-26T17:41:23.084Z,89.61
2022-10-26T17:43:51.580Z,89.98
2022-10-26T17:46:20.818Z,89.84
2022-10-26T17:48:48.353Z,90.09
2022-10-26T17:51:17.869Z,90.40
2022-10-26T17:53:48.641Z,90.57
2022-10-26T17:56:19.225Z,90.84
2022-10-26T17:58:51.309Z,91.63
2022-10-26T18:01:18.971Z,92.27
2022-10-26T18:03:46.605Z,92.66
2022-10-26T18:06:14.913Z,92.71
2022-10-26T18:08:42.491Z,92.47
2022-10-26T18:11:15.164Z,93.06
2022-10-26T18:13:42.806Z,92.80
2022-10-26T18:16:12.071Z,92.90
2022-10-26T18:18:40.754Z,93.48
2022-10-26T18:21:10.033Z,94.50
2022-10-26T18:23:38.095Z,94.85
2022-10-26T18:26:11.404Z,95.82
2022-10-26T18:28:42.481Z,96.20
2022-10-26T18:31:12.305Z,96.95
2022-10-26T18:33:40.185Z,97.27
2022-10-26T18:36:10.455Z,97.68
2022-10-26T18:38:39.877Z,97.83
2022-10-26T18:41:09.113Z,98.20
2022-10-26T18:43:40.624Z,98.71
2022-10-26T18:46:12.137Z,98.79
2022-10-26T18:48:41.712Z,99.13
2022-10-26T18:51:10.886Z,99.55
2022-10-26T18:53:40.304Z,99.39
2022-10-26T18:56:09.625Z,98.53
2022-10-26T18:58:38.812Z,98.85
2022-10-26T19:01:10.604Z,99.25
2022-10-26T19:03:39.137Z,99.58
2022-10-26T19:06:11.531Z,99.65
2022-10-26T19:08:39.263Z,99.61
2022-10-26T19:11:09.137Z,99.78
2022-10-26T19:13:37.180Z,100.00
2022-10-26T19:16:12.572Z,100.00
2022-10-26T19:18:46.651Z,100.00
2022-10-26T19:21:15.903Z,100.00
2022-10-26T19:23:45.996Z,100.00
2022-10-26T19:26:15.080Z,100.00
2022-10-26T19:28:42.811Z,100.00
2022-10-26T19:31:12.462Z,100.00
2022-10-26T19:33:40.126Z,100.00
2022-10-26T19:36:12.841Z,100.00
2022-10-26T19:38:40.862Z,100.00
2022-10-26T19:41:11.110Z,100.00
2022-10-26T19:43:39.262Z,100.00
2022-10-26T19:46:09.103Z,100.00
2022-10-26T19:48:37.483Z,100.00
2022-10-26T19:51:05.749Z,100.00
2022-10-26T19:53:35.099Z,100.00
2022-10-26T19:56:03.499Z,100.00
2022-10-26T19:58:32.446Z,100.00
2022-10-26T20:01:01.096Z,100.00
2022-10-26T20:03:29.487Z,100.00
2022-10-26T20:05:57.662Z,100.00
2022-10-26T20:08:25.556Z,100.00
2022-10-26T20:10:57.061Z,100.00
2022-10-26T20:13:25.177Z,100.00
2022-10-26T20:15:53.509Z,100.00
2022-10-26T20:18:21.215Z,100.00
2022-10-26T20:20:48.866Z,100.00
2022-10-26T20:23:16.570Z,100.00
2022-10-26T20:25:47.249Z,100.00
2022-10-26T20:28:16.825Z,100.00
2022-10-26T20:30:45.225Z,100.00
2022-10-26T20:33:12.909Z,100.00
2022-10-26T20:35:41.004Z,99.73
2022-10-26T20:38:16.301Z,99.64
2022-10-26T20:40:44.800Z,100.00
2022-10-26T20:43:19.246Z,100.00
2022-10-26T20:45:47.409Z,100.00
2022-10-26T20:48:16.103Z,100.00
2022-10-26T20:50:52.590Z,100.00
2022-10-26T20:53:28.604Z,100.00
2022-10-26T20:56:03.524Z,100.00
2022-10-26T21:02:37.535Z,100.00
2022-10-26T21:05:06.055Z,100.00
2022-10-26T21:07:33.624Z,100.00
2022-10-26T21:10:01.180Z,100.00
2022-10-26T21:12:29.839Z,100.00
2022-10-26T21:14:57.391Z,100.00
2022-10-26T21:17:24.912Z,100.00
2022-10-26T21:19:53.813Z,100.00
2022-10-26T21:22:21.343Z,100.00
2022-10-26T21:24:48.890Z,100.00
2022-10-26T21:27:16.410Z,100.00
2022-10-26T21:29:45.189Z,100.00
2022-10-26T21:32:13.374Z,100.00
2022-10-26T21:34:41.000Z,100.00
2022-10-26T21:37:09.871Z,100.00
2022-10-26T21:39:37.452Z,100.00
2022-10-26T21:42:05.049Z,100.00
2022-10-26T21:44:40.934Z,100.00
2022-10-26T21:47:09.554Z,100.00
2022-10-26T21:49:37.365Z,100.00
2022-10-26T21:52:05.252Z,100.00
2022-10-26T21:54:34.361Z,100.00
2022-10-26T21:57:01.911Z,100.00
2022-10-26T21:59:29.448Z,100.00
2022-10-26T22:01:57.193Z,100.00
2022-10-26T22:04:24.821Z,100.00
2022-10-26T22:06:52.359Z,100.00
2022-10-26T22:09:19.998Z,100.00
2022-10-26T22:11:48.936Z,100.00
2022-10-26T22:14:17.866Z,100.00
2022-10-26T22:16:45.780Z,100.00
2022-10-26T22:19:13.336Z,100.00
2022-10-26T22:21:42.281Z,100.00
2022-10-26T22:24:11.054Z,100.00
2022-10-26T22:26:38.885Z,100.00
2022-10-26T22:29:07.835Z,100.00
2022-10-26T22:31:38.502Z,100.00
2022-10-26T22:34:08.210Z,100.00
2022-10-26T22:36:36.666Z,100.00
2022-10-26T22:39:04.905Z,100.00
2022-10-26T22:41:32.510Z,100.00
2022-10-26T22:44:00.128Z,100.00
2022-10-26T22:46:29.235Z,100.00
2022-10-26T22:48:58.198Z,100.00
2022-10-26T22:51:27.376Z,100.00
2022-10-26T22:53:55.979Z,100.00
2022-10-26T22:56:24.690Z,100.00
2022-10-26T22:58:52.926Z,100.00
2022-10-26T23:01:22.400Z,100.00
2022-10-26T23:03:52.748Z,100.00
2022-10-26T23:06:20.900Z,100.00
2022-10-26T23:08:48.624Z,100.00
2022-10-26T23:11:18.908Z,100.00
2022-10-26T23:13:46.525Z,100.00
2022-10-26T23:16:16.382Z,100.00
2022-10-26T23:18:43.864Z,100.00
2022-10-26T23:21:13.911Z,100.00
2022-10-26T23:23:42.016Z,100.00
2022-10-26T23:26:12.015Z,100.00
2022-10-26T23:28:39.914Z,100.00
2022-10-26T23:31:08.165Z,100.00
2022-10-26T23:33:36.094Z,100.00
2022-10-26T23:36:03.605Z,100.00
2022-10-26T23:38:32.452Z,100.00
2022-10-26T23:41:01.102Z,100.00
2022-10-26T23:43:29.108Z,100.00
2022-10-26T23:45:57.081Z,100.00
2022-10-26T23:48:24.828Z,100.00
2022-10-26T23:50:53.072Z,100.00
2022-10-26T23:53:22.787Z,100.00
2022-10-26T23:55:52.253Z,100.00
2022-10-26T23:58:21.508Z,100.00
